createdAt,value
2023-08-03T05:18:58.477Z,21.01
2023-08-03T05:21:26.502Z,21.05
2023-08-03T05:23:55.353Z,21.09
2023-08-03T05:26:58.912Z,21.14
2023-08-03T05:29:31.436Z,21.18
2023-08-03T05:32:28.070Z,21.22
2023-08-03T05:34:57.116Z,21.26
2023-08-03T05:37:48.379Z,21.28
2023-08-03T05:40:15.972Z,21.31
2023-08-03T05:43:32.891Z,21.34
2023-08-03T05:46:39.685Z,21.37
2023-08-03T05:49:10.654Z,21.38
2023-08-03T05:51:44.770Z,21.38
2023-08-03T05:54:47.472Z,21.41
2023-08-03T05:57:41.496Z,21.48
2023-08-03T06:00:28.064Z,21.57
2023-08-03T06:03:04.939Z,21.69
2023-08-03T06:05:51.466Z,21.81
2023-08-03T09:16:39.154Z,25.42
2023-08-03T09:19:09.621Z,25.52
2023-08-03T09:30:15.276Z,25.73
2023-08-03T09:35:23.907Z,25.78
2023-08-03T09:37:56.381Z,25.83
2023-08-03T09:40:24.244Z,25.87
2023-08-03T09:42:55.868Z,25.91
2023-08-03T09:47:56.824Z,25.94
2023-08-03T09:50:26.247Z,25.92
2023-08-03T09:52:59.944Z,25.86
2023-08-03T09:55:37.330Z,25.75
2023-08-03T09:58:08.998Z,25.64
2023-08-03T10:00:38.378Z,25.50
2023-08-03T10:03:11.396Z,25.38
2023-08-03T10:05:47.241Z,25.24
2023-08-03T10:09:25.673Z,25.07
2023-08-03T10:12:20.226Z,24.91
2023-08-03T10:14:52.298Z,24.76
2023-08-03T10:17:21.537Z,24.63
2023-08-03T10:19:49.588Z,24.52
2023-08-03T10:22:17.203Z,24.39
2023-08-03T10:25:22.661Z,24.25
2023-08-03T10:28:20.017Z,24.08
2023-08-03T10:31:17.621Z,23.92
2023-08-03T10:33:46.775Z,23.78
2023-08-03T10:36:32.280Z,23.68
2023-08-03T10:39:08.258Z,23.59
2023-08-03T10:41:47.221Z,23.53
2023-08-03T10:44:13.987Z,23.49
2023-08-03T10:46:52.052Z,23.44
2023-08-03T10:49:19.126Z,23.38
2023-08-03T10:52:26.386Z,23.30
2023-08-03T10:54:56.106Z,23.19
2023-08-03T10:57:29.739Z,23.12
2023-08-03T11:00:19.817Z,22.99
2023-08-03T11:02:49.870Z,22.87
2023-08-03T11:05:27.199Z,22.73
2023-08-03T11:07:56.098Z,22.61
2023-08-03T11:10:25.448Z,22.52
2023-08-03T11:12:56.310Z,22.41
2023-08-03T11:15:27.400Z,22.31
2023-08-03T11:17:55.296Z,22.21
2023-08-03T11:20:22.401Z,22.09
2023-08-03T11:22:54.966Z,21.98
2023-08-03T11:25:23.575Z,21.89
2023-08-03T11:27:54.736Z,21.78
2023-08-03T11:30:21.790Z,21.66
2023-08-03T11:32:48.543Z,21.57
2023-08-03T11:35:18.068Z,21.48
2023-08-03T11:37:44.773Z,21.38
2023-08-03T11:40:15.680Z,21.26
2023-08-03T11:42:45.375Z,21.11
2023-08-03T11:45:13.502Z,20.96
2023-08-03T11:51:02.410Z,20.68
2023-08-03T11:53:34.601Z,20.60
2023-08-03T11:56:05.450Z,20.53
2023-08-03T11:58:32.246Z,20.46
2023-08-03T12:01:05.899Z,20.38
2023-08-03T12:03:38.494Z,20.30
2023-08-03T12:08:56.335Z,20.09
2023-08-03T12:11:25.261Z,19.99
2023-08-03T12:13:52.756Z,19.92
2023-08-03T12:16:19.500Z,19.85
2023-08-03T12:18:50.984Z,19.80
2023-08-03T12:21:18.695Z,19.77
2023-08-03T12:23:46.427Z,19.74
2023-08-03T12:26:13.876Z,19.70
2023-08-03T12:28:41.672Z,19.68
2023-08-03T12:31:14.082Z,19.64
2023-08-03T12:33:43.742Z,19.60
2023-08-03T12:36:11.031Z,19.57
2023-08-03T12:38:38.320Z,19.55
2023-08-03T12:41:05.903Z,19.51
2023-08-03T12:43:33.437Z,19.49
2023-08-03T12:46:03.124Z,19.49
2023-08-03T12:48:35.597Z,19.50
2023-08-03T12:51:02.693Z,19.50
2023-08-03T12:53:29.750Z,19.52
2023-08-03T12:55:57.533Z,19.53
2023-08-03T12:59:05.660Z,19.55
2023-08-03T13:01:35.717Z,19.58
2023-08-03T13:04:09.497Z,19.61
2023-08-03T13:09:49.867Z,19.68
2023-08-03T13:12:17.108Z,19.71
2023-08-03T13:18:15.054Z,19.76
2023-08-03T13:21:08.774Z,19.78
2023-08-03T13:23:35.604Z,19.80
2023-08-03T13:26:37.892Z,19.81
2023-08-03T13:29:05.472Z,19.81
2023-08-03T13:31:33.966Z,19.82
2023-08-03T13:34:01.211Z,19.83
2023-08-03T13:36:28.173Z,19.84
2023-08-03T13:38:55.972Z,19.85
2023-08-03T13:41:23.891Z,19.85
2023-08-03T13:43:51.314Z,19.83
2023-08-03T13:46:18.195Z,19.81
2023-08-03T13:48:47.719Z,19.80
2023-08-03T13:51:14.653Z,19.80
2023-08-03T13:53:44.258Z,19.79
2023-08-03T13:56:10.965Z,19.78
2023-08-03T14:03:38.801Z,19.72
2023-08-03T14:09:12.078Z,19.75
2023-08-03T14:11:26.458Z,19.79
2023-08-03T17:01:09.564Z,20.06
2023-08-03T17:09:58.268Z,19.97
2023-08-03T17:12:30.271Z,19.93
2023-08-03T17:14:58.465Z,19.92
2023-08-03T17:17:27.460Z,19.89
2023-08-03T17:19:54.475Z,19.88
2023-08-03T17:22:21.360Z,19.86
2023-08-03T17:24:53.401Z,19.83
2023-08-03T17:27:21.158Z,19.83
2023-08-03T17:30:33.195Z,19.81
2023-08-03T17:33:06.760Z,19.79
2023-08-03T17:35:37.782Z,19.78
2023-08-03T17:38:05.254Z,19.77
2023-08-03T17:40:35.007Z,19.76
2023-08-03T17:43:06.692Z,19.75
2023-08-03T17:45:39.111Z,19.75
2023-08-03T17:48:06.459Z,19.72
2023-08-03T17:51:09.984Z,19.70
2023-08-03T17:53:40.597Z,19.68
2023-08-03T17:56:11.227Z,19.67
2023-08-03T18:06:44.286Z,19.57
2023-08-03T18:09:26.169Z,19.54
2023-08-03T18:12:16.436Z,19.53
2023-08-03T18:14:43.312Z,19.50
2023-08-03T18:17:09.966Z,19.48
2023-08-03T18:19:37.269Z,19.47
2023-08-03T18:22:09.682Z,19.46
2023-08-03T18:24:37.168Z,19.46
2023-08-03T18:27:04.508Z,19.45
